createdAt,value
2023-11-19T00:01:17.294Z,818.97
2023-11-19T00:03:45.266Z,1267.50
2023-11-19T00:06:12.992Z,998.47
2023-11-19T00:08:40.736Z,1601.77
2023-11-19T00:11:08.404Z,1148.23
2023-11-19T00:13:37.498Z,1251.70
2023-11-19T00:16:06.031Z,1336.53
2023-11-19T00:18:33.966Z,1266.00
2023-11-19T00:21:03.172Z,1331.43
2023-11-19T00:23:30.835Z,1573.93
2023-11-19T00:25:58.687Z,1198.93
2023-11-19T00:28:26.438Z,957.03
2023-11-19T00:30:55.673Z,1144.47
2023-11-19T00:33:23.295Z,1157.40
2023-11-19T00:35:50.890Z,1209.47
2023-11-19T00:38:18.572Z,1056.33
2023-11-19T00:40:46.404Z,1207.27
2023-11-19T00:43:14.345Z,718.90
2023-11-19T00:45:42.300Z,991.37
2023-11-19T00:48:11.896Z,1129.03
2023-11-19T00:50:43.823Z,929.27
2023-11-19T00:53:11.761Z,852.93
2023-11-19T00:55:47.080Z,1101.90
2023-11-19T00:58:15.201Z,385.60
2023-11-19T01:00:44.105Z,652.67
2023-11-19T01:03:13.763Z,891.23
2023-11-19T01:05:41.434Z,523.43
2023-11-19T01:08:09.205Z,417.17
2023-11-19T01:10:38.872Z,941.07
2023-11-19T01:13:06.927Z,929.43
2023-11-19T01:15:34.878Z,848.53
2023-11-19T01:18:03.132Z,707.90
2023-11-19T01:20:32.319Z,827.27
2023-11-19T01:22:59.926Z,775.63
2023-11-19T01:25:27.618Z,1028.07
2023-11-19T01:27:55.288Z,964.50
2023-11-19T01:30:23.132Z,1147.63
2023-11-19T01:32:50.720Z,1115.63
2023-11-19T01:35:18.346Z,1137.03
2023-11-19T01:37:47.262Z,497.77
2023-11-19T01:40:15.152Z,1034.70
2023-11-19T01:42:43.203Z,994.27
2023-11-19T01:45:11.658Z,1045.50
2023-11-19T01:47:39.874Z,1071.33
2023-11-19T01:50:09.017Z,1063.20
2023-11-19T01:52:37.538Z,991.90
2023-11-19T01:55:07.529Z,944.43
2023-11-19T01:57:35.423Z,974.40
2023-11-19T02:00:04.741Z,851.90
2023-11-19T02:02:32.667Z,660.87
2023-11-19T02:05:01.305Z,965.07
2023-11-19T02:07:29.346Z,962.63
2023-11-19T02:10:00.372Z,524.60
2023-11-19T02:12:30.293Z,768.90
2023-11-19T02:14:57.915Z,626.00
2023-11-19T02:17:29.296Z,900.00
2023-11-19T02:19:56.954Z,824.03
2023-11-19T02:22:24.603Z,792.17
2023-11-19T02:24:53.848Z,704.90
2023-11-19T02:27:40.695Z,396.87
2023-11-19T02:30:09.708Z,811.33
2023-11-19T02:32:41.868Z,1003.80
2023-11-19T02:35:10.433Z,509.33
2023-11-19T02:37:39.053Z,837.10
2023-11-19T02:40:10.235Z,399.67
2023-11-19T02:42:38.073Z,721.90
2023-11-19T02:45:08.521Z,838.13
2023-11-19T02:47:37.028Z,731.17
2023-11-19T02:50:05.063Z,473.60
2023-11-19T02:52:36.146Z,227.00
2023-11-19T02:55:03.834Z,242.13
2023-11-19T02:57:33.623Z,331.50
2023-11-19T03:00:01.281Z,570.97
2023-11-19T03:02:34.985Z,460.73
2023-11-19T03:05:02.803Z,532.40
2023-11-19T03:07:30.463Z,795.97
2023-11-19T03:09:58.093Z,383.10
2023-11-19T03:12:25.733Z,805.33
2023-11-19T03:14:53.479Z,763.20
2023-11-19T03:17:21.018Z,158.00
2023-11-19T03:19:50.447Z,811.70
2023-11-19T03:22:18.555Z,787.80
2023-11-19T03:24:46.204Z,507.47
2023-11-19T03:27:15.443Z,550.17
2023-11-19T03:29:44.370Z,524.43
2023-11-19T03:32:13.291Z,680.30
2023-11-19T03:34:42.280Z,718.63
2023-11-19T03:37:11.286Z,567.30
2023-11-19T03:39:38.945Z,162.07
2023-11-19T03:42:06.845Z,587.53
2023-11-19T03:44:34.459Z,394.37
2023-11-19T03:47:02.107Z,399.30
2023-11-19T03:49:29.785Z,436.00
2023-11-19T03:51:57.475Z,408.90
2023-11-19T03:54:28.756Z,352.33
2023-11-19T03:56:56.402Z,391.37
2023-11-19T03:59:23.997Z,403.37
2023-11-19T04:01:52.384Z,271.43
2023-11-19T04:04:20.096Z,361.37
2023-11-19T04:06:47.719Z,179.67
2023-11-19T04:09:15.320Z,211.23
2023-11-19T04:11:44.214Z,491.43
2023-11-19T04:14:12.005Z,612.97
2023-11-19T04:16:39.704Z,658.30
2023-11-19T04:19:07.731Z,569.63
2023-11-19T04:21:35.727Z,473.53
2023-11-19T04:24:03.311Z,591.10
2023-11-19T04:26:32.258Z,484.33
2023-11-19T04:29:01.346Z,468.37
2023-11-19T04:31:32.515Z,219.87
2023-11-19T04:34:01.494Z,450.20
2023-11-19T04:36:30.668Z,312.77
2023-11-19T04:38:58.283Z,492.50
2023-11-19T04:41:26.019Z,520.93
2023-11-19T04:43:53.668Z,488.37
2023-11-19T04:46:22.817Z,566.27
2023-11-19T04:48:50.524Z,479.37
2023-11-19T04:51:18.134Z,471.73
2023-11-19T04:53:45.685Z,579.97
2023-11-19T04:56:14.516Z,564.27
2023-11-19T04:58:42.163Z,345.87
2023-11-19T05:01:16.124Z,417.53
2023-11-19T05:03:46.574Z,424.37
2023-11-19T05:06:14.262Z,481.83
2023-11-19T05:08:41.907Z,352.97
2023-11-19T05:11:13.057Z,296.50
2023-11-19T05:13:40.745Z,425.00
2023-11-19T05:16:10.914Z,452.63
2023-11-19T05:18:40.660Z,423.17
2023-11-19T05:21:11.133Z,147.60
2023-11-19T05:23:38.817Z,243.93
2023-11-19T05:26:08.761Z,285.10
2023-11-19T05:28:36.725Z,61.50
2023-11-19T05:31:04.569Z,109.43
2023-11-19T05:33:32.324Z,434.37
2023-11-19T05:35:59.977Z,515.47
2023-11-19T05:38:30.045Z,483.83
2023-11-19T05:40:58.124Z,508.40
2023-11-19T05:43:25.826Z,247.37
2023-11-19T05:45:53.475Z,536.93
2023-11-19T05:48:21.182Z,607.73
2023-11-19T05:50:50.319Z,315.57
2023-11-19T05:53:18.148Z,525.37
2023-11-19T05:55:50.839Z,517.60
2023-11-19T05:58:18.463Z,627.77
2023-11-19T06:00:46.526Z,655.73
2023-11-19T06:03:14.724Z,723.13
2023-11-19T06:05:42.512Z,653.13
2023-11-19T06:08:10.110Z,467.10
2023-11-19T06:10:37.780Z,410.17
2023-11-19T06:13:06.772Z,454.70
2023-11-19T06:15:35.265Z,374.80
2023-11-19T06:18:04.427Z,471.77
2023-11-19T06:20:43.398Z,435.63
2023-11-19T06:23:11.616Z,293.77
2023-11-19T06:25:39.510Z,491.73
2023-11-19T06:28:08.772Z,429.73
2023-11-19T06:30:37.321Z,287.47
2023-11-19T06:33:05.698Z,341.13
2023-11-19T06:35:37.324Z,408.27
2023-11-19T06:38:05.977Z,395.87
2023-11-19T06:40:33.752Z,311.73
2023-11-19T06:43:01.908Z,340.20
2023-11-19T06:45:31.146Z,53.20
2023-11-19T06:47:59.756Z,149.80
2023-11-19T06:50:27.377Z,393.43
2023-11-19T06:52:55.009Z,503.90
2023-11-19T06:55:22.631Z,84.80
2023-11-19T06:57:50.284Z,412.00
2023-11-19T07:00:19.249Z,535.93
2023-11-19T07:02:48.428Z,486.30
2023-11-19T07:05:16.182Z,140.13
2023-11-19T07:07:44.389Z,433.10
2023-11-19T07:10:12.607Z,382.73
2023-11-19T07:12:40.403Z,333.20
2023-11-19T07:15:08.885Z,293.13
2023-11-19T07:17:37.550Z,358.37
2023-11-19T07:20:08.569Z,90.43
2023-11-19T07:22:36.229Z,82.03
2023-11-19T07:25:04.203Z,5.37
2023-11-19T07:27:31.834Z,14.13
2023-11-19T07:29:59.578Z,7.13
2023-11-19T07:32:27.341Z,10.17
2023-11-19T07:34:54.972Z,9.57
2023-11-19T07:37:23.961Z,8.80
2023-11-19T07:39:51.681Z,14.03
2023-11-19T07:42:19.309Z,9.73
2023-11-19T07:44:47.204Z,9.40
2023-11-19T07:47:14.897Z,9.73
2023-11-19T07:49:45.688Z,7.93
2023-11-19T07:54:45.500Z,7.67
2023-11-19T07:57:13.320Z,4.27
2023-11-19T07:59:41.099Z,17.73
2023-11-19T08:02:08.846Z,6.90
2023-11-19T08:04:36.617Z,5.30
2023-11-19T08:07:04.509Z,5.33
2023-11-19T08:09:32.938Z,4.57
2023-11-19T08:12:01.989Z,8.77
2023-11-19T08:14:29.705Z,13.57
2023-11-19T08:16:58.096Z,9.03
2023-11-19T08:19:25.836Z,3.17
2023-11-19T08:21:53.796Z,7.40
2023-11-19T08:24:21.692Z,2.83
2023-11-19T08:27:02.894Z,6.77
2023-11-19T08:29:32.567Z,4.90
2023-11-19T08:32:03.595Z,5.13
2023-11-19T08:34:31.659Z,5.23
2023-11-19T08:36:59.454Z,5.50
2023-11-19T08:39:27.226Z,4.13
2023-11-19T08:41:56.730Z,7.60
2023-11-19T08:44:24.398Z,8.83
2023-11-19T08:46:53.892Z,4.13
2023-11-19T08:49:21.670Z,5.57
2023-11-19T08:51:49.645Z,7.73
2023-11-19T08:54:17.537Z,6.20
2023-11-19T08:56:45.402Z,17.67
2023-11-19T08:59:13.470Z,24.57
2023-11-19T09:01:42.304Z,9.43
2023-11-19T09:04:12.032Z,6.73
2023-11-19T09:06:39.802Z,5.93
2023-11-19T09:09:07.492Z,4.10
2023-11-19T09:11:35.324Z,9.50
2023-11-19T09:14:03.506Z,6.57
2023-11-19T09:16:31.616Z,4.77
2023-11-19T09:19:00.409Z,7.97
2023-11-19T09:21:30.621Z,7.10
2023-11-19T09:23:58.336Z,8.17
2023-11-19T09:26:26.213Z,8.23
2023-11-19T09:28:54.006Z,7.67
2023-11-19T09:31:21.804Z,7.10
2023-11-19T09:33:49.523Z,9.90
2023-11-19T09:36:17.905Z,7.50
2023-11-19T09:38:47.251Z,4.30
2023-11-19T09:41:15.441Z,8.30
2023-11-19T09:43:43.605Z,7.67
2023-11-19T09:46:12.661Z,13.97
2023-11-19T09:48:41.201Z,10.87
2023-11-19T09:51:09.632Z,14.37
2023-11-19T09:53:37.553Z,14.70
2023-11-19T09:56:08.985Z,8.93
2023-11-19T09:58:37.154Z,7.83
2023-11-19T10:03:41.042Z,9.13
2023-11-19T10:06:09.567Z,10.00
2023-11-19T10:08:39.981Z,10.63
2023-11-19T10:11:09.402Z,10.30
2023-11-19T10:13:38.958Z,9.27
2023-11-19T10:16:10.505Z,6.57
2023-11-19T10:18:40.970Z,12.93
2023-11-19T10:21:09.065Z,12.03
2023-11-19T10:23:51.187Z,9.43
2023-11-19T10:26:20.978Z,9.43
2023-11-19T10:28:49.551Z,9.33
2023-11-19T10:31:18.030Z,9.40
2023-11-19T10:33:46.571Z,11.30
2023-11-19T10:36:14.731Z,11.80
2023-11-19T10:38:42.132Z,10.17
2023-11-19T10:41:09.876Z,11.50
2023-11-19T10:43:48.611Z,13.73
2023-11-19T10:46:22.095Z,11.10
2023-11-19T10:48:50.187Z,12.57
2023-11-19T10:51:22.703Z,10.60
2023-11-19T10:53:52.150Z,10.63
2023-11-19T10:56:22.836Z,14.77
2023-11-19T10:58:53.830Z,14.80
2023-11-19T11:01:22.910Z,11.37
2023-11-19T11:03:54.516Z,9.77
2023-11-19T11:06:23.447Z,12.07
2023-11-19T11:08:51.156Z,7.57
2023-11-19T11:11:22.103Z,10.97
2023-11-19T11:13:52.273Z,11.07
2023-11-19T11:16:21.144Z,10.30
2023-11-19T11:18:51.039Z,13.70
2023-11-19T11:21:21.701Z,10.87
2023-11-19T11:24:08.442Z,18.23
2023-11-19T11:26:50.297Z,11.30
2023-11-19T11:29:26.639Z,11.90
2023-11-19T11:32:04.108Z,9.20
2023-11-19T11:34:56.329Z,10.93
2023-11-19T11:37:28.502Z,18.40
2023-11-19T11:39:56.395Z,8.10
2023-11-19T11:42:37.145Z,8.87
2023-11-19T11:45:09.966Z,12.13
2023-11-19T11:48:15.482Z,9.63
2023-11-19T11:50:50.205Z,9.70
2023-11-19T11:53:19.809Z,9.70
2023-11-19T11:55:59.874Z,11.43
2023-11-19T11:58:28.706Z,10.93
2023-11-19T12:00:59.721Z,9.98
2023-11-19T12:03:29.553Z,12.73
2023-11-19T12:05:57.244Z,8.80
2023-11-19T12:08:28.188Z,11.80
2023-11-19T12:10:58.994Z,12.27
2023-11-19T12:13:28.591Z,6.47
2023-11-19T12:16:13.782Z,12.47
2023-11-19T12:18:43.335Z,10.20
2023-11-19T12:21:14.180Z,7.00
2023-11-19T12:23:49.317Z,12.33
2023-11-19T12:26:36.173Z,8.27
2023-11-19T12:29:08.920Z,9.90
2023-11-19T12:31:39.421Z,10.53
2023-11-19T12:34:09.138Z,9.47
2023-11-19T12:36:37.004Z,10.27
2023-11-19T12:39:06.812Z,8.80
2023-11-19T12:41:36.099Z,10.93
2023-11-19T12:44:13.719Z,12.40
2023-11-19T12:46:42.899Z,7.57
2023-11-19T12:49:13.530Z,9.13
2023-11-19T12:51:41.180Z,7.13
2023-11-19T12:54:08.956Z,10.83
2023-11-19T12:56:37.636Z,12.60
2023-11-19T12:59:14.626Z,8.33
2023-11-19T13:01:46.584Z,9.57
2023-11-19T13:04:20.734Z,7.40
2023-11-19T13:07:05.055Z,15.63
2023-11-19T13:09:33.689Z,13.27
2023-11-19T13:12:04.734Z,11.00
2023-11-19T13:14:38.626Z,13.10
2023-11-19T13:17:08.117Z,8.80
2023-11-19T13:19:35.859Z,9.57
2023-11-19T13:22:03.799Z,8.83
2023-11-19T13:24:31.644Z,11.87
2023-11-19T13:26:59.588Z,9.17
2023-11-19T13:29:28.882Z,9.93
2023-11-19T13:31:58.018Z,8.70
2023-11-19T13:34:26.972Z,11.97
2023-11-19T13:36:54.572Z,8.67
2023-11-19T13:39:24.797Z,10.30
2023-11-19T13:41:52.369Z,9.33
2023-11-19T13:44:21.804Z,8.67
2023-11-19T13:46:49.420Z,10.83
2023-11-19T13:49:17.239Z,10.13
2023-11-19T13:51:46.653Z,9.77
2023-11-19T13:54:15.506Z,10.40
2023-11-19T13:56:45.651Z,10.63
2023-11-19T13:59:13.331Z,10.83
2023-11-19T14:01:40.935Z,13.67
2023-11-19T14:04:10.217Z,8.10
2023-11-19T14:06:37.925Z,12.43
2023-11-19T14:09:09.037Z,7.30
2023-11-19T14:11:36.666Z,8.87
2023-11-19T14:14:04.501Z,8.00
2023-11-19T14:16:33.481Z,13.00
2023-11-19T14:19:01.192Z,10.00
2023-11-19T14:21:28.843Z,9.10
2023-11-19T14:23:56.934Z,10.57
2023-11-19T14:26:25.826Z,9.07
2023-11-19T14:28:56.448Z,12.37
2023-11-19T14:31:24.267Z,10.30
2023-11-19T14:33:51.861Z,16.43
2023-11-19T14:36:19.923Z,12.07
2023-11-19T14:38:47.430Z,11.90
2023-11-19T14:41:15.078Z,8.80
2023-11-19T14:43:43.991Z,11.53
2023-11-19T14:46:11.631Z,11.57
2023-11-19T14:48:39.238Z,15.80
2023-11-19T14:51:08.037Z,12.70
2023-11-19T14:53:35.628Z,9.40
2023-11-19T14:56:03.450Z,11.43
2023-11-19T14:58:31.111Z,12.33
2023-11-19T15:01:00.214Z,19.03
2023-11-19T15:03:28.093Z,12.23
2023-11-19T15:05:55.799Z,9.43
2023-11-19T15:08:23.364Z,10.53
2023-11-19T15:10:51.166Z,11.17
2023-11-19T15:13:18.754Z,13.87
2023-11-19T15:15:46.458Z,11.73
2023-11-19T15:18:15.478Z,9.63
2023-11-19T15:20:43.091Z,11.37
2023-11-19T15:23:11.027Z,14.27
2023-11-19T15:25:38.815Z,12.20
2023-11-19T15:28:06.440Z,11.17
2023-11-19T15:30:34.048Z,11.63
2023-11-19T15:33:01.664Z,12.63
2023-11-19T15:35:30.605Z,13.67
2023-11-19T15:37:58.228Z,9.43
2023-11-19T15:40:25.920Z,14.13
2023-11-19T15:42:55.899Z,12.57
2023-11-19T15:45:23.510Z,7.90
2023-11-19T15:47:51.533Z,15.50
2023-11-19T15:50:19.158Z,12.50
2023-11-19T15:52:48.960Z,15.23
2023-11-19T15:55:17.046Z,16.00
2023-11-19T15:57:44.677Z,12.80
2023-11-19T16:00:12.985Z,12.93
2023-11-19T16:02:40.851Z,10.13
2023-11-19T16:05:12.032Z,8.63
2023-11-19T16:07:41.475Z,13.23
2023-11-19T16:10:14.230Z,15.17
2023-11-19T16:12:42.418Z,15.37
2023-11-19T16:15:11.013Z,15.57
2023-11-19T16:17:41.014Z,26.27
2023-11-19T16:20:12.791Z,29.37
2023-11-19T16:22:40.490Z,19.13
2023-11-19T16:25:10.529Z,17.33
2023-11-19T16:27:40.549Z,11.40
2023-11-19T16:30:09.294Z,11.33
2023-11-19T16:32:49.900Z,14.07
2023-11-19T16:35:17.634Z,17.37
2023-11-19T16:37:45.979Z,15.93
2023-11-19T16:40:15.566Z,16.07
2023-11-19T16:42:43.568Z,14.37
2023-11-19T16:45:11.427Z,16.53
2023-11-19T16:47:39.169Z,7.67
2023-11-19T16:50:08.908Z,10.20
2023-11-19T16:52:36.510Z,11.97
2023-11-19T16:55:07.290Z,15.27
2023-11-19T16:57:36.865Z,14.73
2023-11-19T17:00:05.432Z,12.63
2023-11-19T17:02:50.969Z,11.13
2023-11-19T17:05:19.343Z,19.53
2023-11-19T17:07:49.239Z,12.97
2023-11-19T17:10:17.519Z,12.70
2023-11-19T17:12:46.436Z,10.27
2023-11-19T17:15:14.236Z,10.63
2023-11-19T17:17:41.859Z,19.77
2023-11-19T17:20:10.914Z,11.40
2023-11-19T17:22:41.544Z,14.50
2023-11-19T17:25:10.819Z,14.10
2023-11-19T17:27:40.152Z,14.93
2023-11-19T17:30:12.140Z,18.87
2023-11-19T17:32:39.762Z,17.33
2023-11-19T17:35:08.199Z,14.57
2023-11-19T17:37:35.842Z,15.70
2023-11-19T17:40:03.487Z,8.77
2023-11-19T17:42:31.191Z,13.30
2023-11-19T17:44:59.783Z,13.40
2023-11-19T17:47:29.489Z,11.27
2023-11-19T17:49:57.103Z,16.77
2023-11-19T17:52:25.092Z,11.40
2023-11-19T17:54:52.729Z,11.87
2023-11-19T17:57:20.333Z,15.57
2023-11-19T17:59:50.683Z,15.77
2023-11-19T18:02:19.634Z,10.07
2023-11-19T18:04:49.247Z,13.97
2023-11-19T18:07:17.792Z,12.87
2023-11-19T18:09:46.086Z,15.70
2023-11-19T18:12:16.649Z,13.07
2023-11-19T18:17:15.248Z,12.63
2023-11-19T18:19:42.843Z,18.97
2023-11-19T18:22:12.010Z,15.90
2023-11-19T18:24:39.750Z,16.70
2023-11-19T18:27:08.571Z,14.53
2023-11-19T18:29:36.487Z,11.10
2023-11-19T18:32:05.315Z,17.97
2023-11-19T18:34:32.952Z,16.80
2023-11-19T18:37:00.991Z,16.10
2023-11-19T18:39:29.901Z,16.00
2023-11-19T18:41:57.610Z,17.20
2023-11-19T18:44:25.259Z,15.83
2023-11-19T18:46:52.865Z,17.83
2023-11-19T18:49:20.492Z,21.27
2023-11-19T18:51:48.095Z,12.20
2023-11-19T18:54:17.401Z,16.33
2023-11-19T18:56:46.384Z,19.47
2023-11-19T18:59:14.752Z,15.50
2023-11-19T19:01:44.702Z,17.67
2023-11-19T19:04:12.546Z,16.67
2023-11-19T19:06:42.009Z,17.70
2023-11-19T19:09:09.636Z,10.47
2023-11-19T19:11:37.307Z,16.17
2023-11-19T19:14:08.404Z,16.63
2023-11-19T19:16:38.094Z,14.63
2023-11-19T19:19:05.932Z,15.90
2023-11-19T19:21:33.509Z,14.33
2023-11-19T19:24:04.262Z,15.30
2023-11-19T19:26:32.067Z,17.90
2023-11-19T19:28:59.725Z,16.23
2023-11-19T19:31:29.355Z,12.73
2023-11-19T19:33:59.015Z,14.57
2023-11-19T19:36:29.011Z,19.00
2023-11-19T19:38:56.793Z,21.60
2023-11-19T19:41:25.601Z,15.13
2023-11-19T19:43:53.319Z,13.73
2023-11-19T19:46:20.953Z,16.93
2023-11-19T19:48:51.881Z,14.03
2023-11-19T19:51:21.130Z,21.07
2023-11-19T19:53:49.031Z,12.93
2023-11-19T19:56:17.141Z,18.90
2023-11-19T19:58:44.936Z,16.37
2023-11-19T20:01:12.538Z,22.13
2023-11-19T20:03:40.309Z,16.47
2023-11-19T20:06:12.486Z,14.03
2023-11-19T20:08:40.780Z,17.17
2023-11-19T20:11:09.778Z,11.87
2023-11-19T20:13:38.027Z,15.53
2023-11-19T20:16:06.598Z,18.20
2023-11-19T20:18:34.849Z,15.83
2023-11-19T20:21:04.902Z,24.53
2023-11-19T20:23:33.914Z,14.87
2023-11-19T20:26:01.605Z,11.27
2023-11-19T20:28:29.156Z,19.50
2023-11-19T20:30:56.763Z,17.60
2023-11-19T20:33:24.373Z,19.37
2023-11-19T20:35:52.599Z,12.30
2023-11-19T20:38:20.584Z,18.67
2023-11-19T20:40:50.720Z,16.53
2023-11-19T20:43:18.357Z,15.33
2023-11-19T20:45:46.003Z,15.13
2023-11-19T20:48:13.831Z,15.73
2023-11-19T20:50:41.989Z,11.43
2023-11-19T20:53:09.788Z,18.97
2023-11-19T20:55:39.441Z,14.70
2023-11-19T20:58:10.624Z,17.93
2023-11-19T21:00:40.095Z,16.23
2023-11-19T21:03:10.897Z,15.67
2023-11-19T21:05:40.086Z,18.17
2023-11-19T21:08:07.761Z,16.57
2023-11-19T21:10:35.366Z,18.97
2023-11-19T21:13:03.054Z,14.70
2023-11-19T21:15:32.099Z,15.70
2023-11-19T21:18:01.880Z,12.60
2023-11-19T21:20:29.499Z,15.17
2023-11-19T21:22:57.098Z,12.97
2023-11-19T21:25:24.800Z,14.50
2023-11-19T21:27:52.487Z,13.03
2023-11-19T21:30:20.052Z,11.87
2023-11-19T21:32:49.002Z,12.70
2023-11-19T21:35:16.725Z,15.47
2023-11-19T21:37:44.288Z,12.00
2023-11-19T21:40:12.673Z,16.77
2023-11-19T21:42:40.259Z,12.57
2023-11-19T21:45:09.508Z,10.30
2023-11-19T21:47:37.153Z,13.57
2023-11-19T21:50:08.227Z,15.70
2023-11-19T21:52:36.372Z,13.80
2023-11-19T21:55:04.314Z,16.13
2023-11-19T21:57:31.921Z,16.67
2023-11-19T21:59:59.532Z,12.73
2023-11-19T22:02:27.192Z,14.27
2023-11-19T22:04:54.838Z,12.17
2023-11-19T22:07:24.498Z,15.83
2023-11-19T22:09:52.767Z,15.30
2023-11-19T22:12:21.712Z,16.43
2023-11-19T22:14:49.291Z,16.93
2023-11-19T22:17:17.263Z,14.27
2023-11-19T22:19:47.187Z,16.77
2023-11-19T22:22:17.701Z,15.10
2023-11-19T22:24:46.667Z,11.43
2023-11-19T22:27:14.292Z,12.80
2023-11-19T22:29:41.869Z,15.87
2023-11-19T22:32:09.467Z,11.30
2023-11-19T22:34:37.083Z,14.30
2023-11-19T22:37:04.982Z,11.67
2023-11-19T22:39:32.557Z,9.97
2023-11-19T22:42:01.520Z,15.60
2023-11-19T22:44:29.327Z,17.70
2023-11-19T22:46:57.053Z,12.80
2023-11-19T22:49:24.667Z,15.57
2023-11-19T22:51:52.269Z,15.53
2023-11-19T22:54:19.941Z,8.23
2023-11-19T22:56:47.516Z,11.97
2023-11-19T22:59:17.056Z,12.83
2023-11-19T23:01:46.111Z,15.93
2023-11-19T23:04:14.513Z,11.70
2023-11-19T23:06:42.523Z,15.87
2023-11-19T23:09:14.406Z,12.20
2023-11-19T23:12:08.727Z,11.47
2023-11-19T23:14:38.276Z,19.60
2023-11-19T23:17:20.231Z,17.40
2023-11-19T23:19:49.099Z,10.63
2023-11-19T23:24:48.975Z,8.90
2023-11-19T23:27:19.413Z,14.80
2023-11-19T23:29:48.360Z,20.27
2023-11-19T23:32:16.385Z,14.17
2023-11-19T23:34:44.600Z,19.77
2023-11-19T23:37:23.052Z,0.40
2023-11-19T23:39:51.049Z,0.50
2023-11-19T23:42:25.470Z,0.50
2023-11-19T23:44:54.836Z,0.87
2023-11-19T23:47:22.906Z,13.87
2023-11-19T23:49:50.724Z,18.13
2023-11-19T23:52:18.985Z,12.97
2023-11-19T23:54:47.106Z,11.23
2023-11-19T23:57:15.886Z,12.93
2023-11-19T23:59:48.368Z,11.60
